Time;durP1;ratioP1;P1;durP2;ratioP2;P2;SDS_P1;SDS_P2;PMS_P1;PMS_P2;Temp;Humidity;BMP_temperature;BMP_pressure;BME280_temperature;BME280_humidity;BME280_pressure;Samples;Min_cycle;Max_cycle;Signal;HPM_P1;HPM_P2
2022/06/23 00:00:58;;;;;;;10.98;5.78;;;;;;;16.79;83.43;101247.59;5039471;28;20029;-40
2022/06/23 00:03:27;;;;;;;10.20;5.00;;;;;;;16.83;83.00;101252.19;5056798;28;20566;-40
2022/06/23 00:05:59;;;;;;;7.95;4.60;;;;;;;16.82;83.52;101247.16;5056092;28;20052;-40
2022/06/23 00:08:24;;;;;;;9.67;5.20;;;;;;;16.64;83.45;101247.91;5056497;28;20124;-39
2022/06/23 00:10:55;;;;;;;13.13;5.28;;;;;;;16.63;83.63;101241.09;5056710;28;20025;-45
2022/06/23 00:13:33;;;;;;;12.23;5.35;;;;;;;16.52;84.51;101237.41;5056732;28;20078;-40
2022/06/23 00:15:59;;;;;;;15.27;5.68;;;;;;;16.39;85.50;101250.53;5056227;28;20035;-45
2022/06/23 00:18:27;;;;;;;12.05;5.43;;;;;;;16.34;85.17;101245.16;5056862;28;20496;-39
2022/06/23 00:21:00;;;;;;;9.73;5.43;;;;;;;16.44;85.58;101243.69;5056263;28;20500;-39
2022/06/23 00:23:28;;;;;;;;;;;;;;;16.05;86.00;101229.13;5056647;28;20100;-39
2022/06/23 00:26:11;;;;;;;11.63;5.32;;;;;;;16.37;85.53;101235.13;5054801;28;19912;-39
2022/06/23 00:28:53;;;;;;;9.55;5.32;;;;;;;16.36;85.17;101236.13;5056477;28;20091;-39
2022/06/23 00:31:39;;;;;;;13.00;5.65;;;;;;;16.19;86.21;101235.06;5056668;28;20033;-40
2022/06/23 00:34:26;;;;;;;8.30;5.43;;;;;;;16.26;86.35;101233.22;5056006;28;20060;-39
2022/06/23 00:36:55;;;;;;;12.80;5.40;;;;;;;16.25;86.23;101242.03;5056519;28;20115;-40
2022/06/23 00:39:30;;;;;;;11.63;5.13;;;;;;;16.26;85.60;101240.25;5055513;28;20025;-39
2022/06/23 00:41:55;;;;;;;14.90;5.63;;;;;;;16.28;86.43;101235.59;5056192;28;20064;-39
2022/06/23 00:44:44;;;;;;;11.68;5.13;;;;;;;16.38;86.04;101228.88;5055830;28;20059;-45
2022/06/23 00:47:17;;;;;;;15.25;5.22;;;;;;;16.36;85.79;101219.69;5056223;28;20028;-39
2022/06/23 00:49:51;;;;;;;10.80;5.88;;;;;;;16.23;86.22;101237.03;5055754;28;20016;-40
2022/06/23 00:52:28;;;;;;;11.93;6.25;;;;;;;16.13;87.57;101235.91;5055720;28;20051;-40
2022/06/23 00:54:59;;;;;;;11.02;5.40;;;;;;;16.16;87.58;101235.50;5055930;28;20079;-38
2022/06/23 00:57:47;;;;;;;18.65;6.95;;;;;;;16.25;86.78;101234.19;5055566;28;20028;-40
2022/06/23 01:00:19;;;;;;;11.50;6.25;;;;;;;16.05;87.11;101220.53;5055826;28;20029;-39
2022/06/23 01:02:51;;;;;;;11.55;5.78;;;;;;;16.09;87.11;101224.31;5055481;28;20112;-39
2022/06/23 01:05:35;;;;;;;11.70;5.55;;;;;;;16.20;87.12;101221.81;5055645;28;20072;-40
2022/06/23 01:08:31;;;;;;;10.57;6.13;;;;;;;16.14;87.49;101217.47;5055432;28;20442;-40
2022/06/23 01:11:12;;;;;;;9.25;5.65;;;;;;;16.11;87.17;101227.50;5055767;28;20036;-39
2022/06/23 01:13:41;;;;;;;11.45;5.70;;;;;;;16.19;87.01;101225.41;5055604;28;20444;-40
2022/06/23 01:16:20;;;;;;;12.38;6.10;;;;;;;16.12;87.66;101227.31;5056020;28;20029;-39
2022/06/23 01:18:53;;;;;;;15.95;6.00;;;;;;;16.02;87.67;101219.13;5055453;28;20033;-40
2022/06/23 01:21:24;;;;;;;;;;;;;;;15.85;88.42;101216.25;5055545;28;20025;-40
2022/06/23 01:24:20;;;;;;;10.23;5.63;;;;;;;15.75;89.23;101218.53;5055366;28;19912;-39
2022/06/23 01:27:10;;;;;;;12.95;5.65;;;;;;;15.70;89.33;101218.34;5055500;28;20127;-39
2022/06/23 01:29:44;;;;;;;11.70;6.07;;;;;;;15.86;90.02;101204.03;5055230;28;20021;-39
2022/06/23 01:32:34;;;;;;;12.35;5.72;;;;;;;15.88;89.30;101213.25;5055202;28;20025;-39
2022/06/23 01:35:24;;;;;;;16.00;6.30;;;;;;;15.65;90.35;101216.38;5054883;28;20024;-41
2022/06/23 01:37:59;;;;;;;11.90;6.07;;;;;;;15.70;90.18;101215.75;5054850;28;20017;-39
2022/06/23 01:40:54;;;;;;;15.55;5.90;;;;;;;15.78;90.04;101218.13;5055021;28;20045;-39
2022/06/23 01:43:29;;;;;;;11.73;6.30;;;;;;;15.71;90.04;101212.94;5054749;28;20044;-40
2022/06/23 01:46:19;;;;;;;15.95;6.03;;;;;;;15.56;90.17;101221.03;5054908;28;20027;-39
2022/06/23 01:49:00;;;;;;;11.18;5.85;;;;;;;15.65;90.31;101221.59;5054854;28;20051;-40
2022/06/23 01:51:32;;;;;;;13.63;6.20;;;;;;;15.69;89.94;101219.38;5053637;28;20048;-55
2022/06/23 01:54:25;;;;;;;9.65;6.00;;;;;;;15.66;89.77;101225.78;5054426;28;20074;-39
2022/06/23 01:57:13;;;;;;;15.70;6.03;;;;;;;15.71;90.19;101228.59;5054405;28;20027;-40
2022/06/23 01:59:47;;;;;;;13.18;6.13;;;;;;;15.77;89.01;101230.34;5054299;28;20025;-40
2022/06/23 02:02:31;;;;;;;11.80;6.10;;;;;;;15.82;89.10;101223.69;5054429;28;20056;-40
2022/06/23 02:05:23;;;;;;;14.80;6.00;;;;;;;15.65;90.09;101224.19;5054246;28;20114;-40
2022/06/23 02:08:16;;;;;;;11.65;6.32;;;;;;;15.54;89.77;101217.03;5054799;28;20040;-39
2022/06/23 02:10:52;;;;;;;12.23;6.32;;;;;;;15.60;89.99;101221.41;5054509;28;20498;-39
2022/06/23 02:13:42;;;;;;;10.05;6.40;;;;;;;15.61;89.65;101219.59;5054125;28;20115;-40
2022/06/23 02:16:25;;;;;;;13.13;6.30;;;;;;;15.57;89.65;101217.41;5053666;28;20503;-39
2022/06/23 02:19:09;;;;;;;11.55;6.72;;;;;;;15.35;90.29;101214.31;5054064;28;20056;-39
2022/06/23 02:21:53;;;;;;;11.80;6.60;;;;;;;15.53;90.03;101205.00;5054031;28;20021;-39
2022/06/23 02:24:43;;;;;;;12.02;6.70;;;;;;;15.52;89.89;101206.81;5054210;28;20021;-38
2022/06/23 02:27:24;;;;;;;11.45;6.13;;;;;;;15.51;89.74;101201.81;5054372;28;20025;-40
2022/06/23 02:29:58;;;;;;;16.98;6.93;;;;;;;15.55;89.99;101203.78;5052639;28;20037;-39
2022/06/23 02:32:55;;;;;;;15.45;6.65;;;;;;;15.51;89.74;101202.63;5053869;28;20021;-39
2022/06/23 02:35:42;;;;;;;9.85;6.05;;;;;;;15.46;89.05;101214.66;5054068;28;20017;-39
2022/06/23 02:38:23;;;;;;;14.77;7.28;;;;;;;15.33;90.58;101212.91;5053889;28;20036;-39
2022/06/23 02:41:09;;;;;;;13.65;6.72;;;;;;;15.48;90.13;101204.84;5053665;28;20036;-39
2022/06/23 02:43:43;;;;;;;12.45;7.07;;;;;;;15.54;89.16;101217.81;5054172;28;20019;-39
2022/06/23 02:46:40;;;;;;;11.77;6.72;;;;;;;15.40;89.48;101218.09;5053824;28;20477;-40
2022/06/23 02:49:30;;;;;;;10.85;6.82;;;;;;;15.46;90.24;101212.06;5052239;28;20036;-40
2022/06/23 02:52:01;;;;;;;12.63;7.63;;;;;;;15.10;90.68;101208.19;5053780;28;20048;-40
2022/06/23 02:54:41;;;;;;;11.15;6.80;;;;;;;15.04;91.44;101215.03;5053824;28;20083;-40
2022/06/23 02:57:27;;;;;;;12.10;6.50;;;;;;;15.21;91.29;101207.56;5053424;28;20021;-39
2022/06/23 03:00:01;;;;;;;17.80;7.28;;;;;;;15.15;90.99;101203.19;5052156;28;20375;-39
2022/06/23 03:02:52;;;;;;;15.35;7.60;;;;;;;15.13;91.39;101194.78;5053718;28;20106;-39
2022/06/23 03:05:30;;;;;;;14.00;7.15;;;;;;;15.10;91.38;101195.19;5053486;28;20075;-39
2022/06/23 03:08:06;;;;;;;17.30;7.95;;;;;;;15.06;91.10;101189.59;5053280;28;20059;-39
2022/06/23 03:10:43;;;;;;;14.40;7.72;;;;;;;15.17;90.82;101188.16;5053803;28;20028;-40
2022/06/23 03:13:22;;;;;;;17.50;7.32;;;;;;;15.22;89.97;101197.94;5053808;28;20111;-39
2022/06/23 03:15:54;;;;;;;15.10;7.00;;;;;;;15.32;91.13;101199.09;5053847;28;20025;-38
2022/06/23 03:18:37;;;;;;;13.85;7.35;;;;;;;15.24;90.55;101195.94;5053572;28;20111;-39
2022/06/23 03:21:07;;;;;;;15.90;7.30;;;;;;;15.09;91.56;101177.97;5053130;28;20029;-39
2022/06/23 03:23:56;;;;;;;17.35;7.82;;;;;;;15.13;91.25;101181.75;5053479;28;20033;-40
2022/06/23 03:26:35;;;;;;;12.88;7.10;;;;;;;15.04;90.97;101177.78;5053389;28;20037;-39
2022/06/23 03:29:15;;;;;;;14.57;7.43;;;;;;;15.05;91.34;101166.41;5053195;28;20426;-39
2022/06/23 03:31:56;;;;;;;18.05;7.60;;;;;;;15.22;90.63;101177.09;5053015;28;20035;-40
2022/06/23 03:34:32;;;;;;;14.30;7.80;;;;;;;15.17;91.06;101185.56;5053371;28;20517;-39
2022/06/23 03:37:07;;;;;;;13.32;7.63;;;;;;;14.95;92.02;101182.44;5053032;28;20031;-39
2022/06/23 03:42:35;;;;;;;12.50;7.25;;;;;;;15.16;91.44;101186.53;5053040;28;20115;-40
2022/06/23 03:45:10;;;;;;;16.05;7.32;;;;;;;15.29;90.25;101186.50;5053167;28;20057;-39
2022/06/23 03:47:53;;;;;;;16.85;7.25;;;;;;;15.07;90.55;101187.78;5053173;28;20017;-39
2022/06/23 03:50:27;;;;;;;14.80;7.35;;;;;;;15.20;90.39;101184.34;5053013;28;20062;-39
2022/06/23 03:53:01;;;;;;;16.52;7.88;;;;;;;15.21;89.83;101185.94;5052914;28;20025;-39
2022/06/23 03:55:39;;;;;;;13.07;7.63;;;;;;;14.82;92.05;101185.09;5052844;28;20057;-39
2022/06/23 03:58:15;;;;;;;12.80;7.47;;;;;;;15.07;91.48;101179.97;5053135;28;20043;-40
2022/06/23 04:00:52;;;;;;;14.02;7.60;;;;;;;15.05;91.61;101175.00;5053157;28;20212;-39
2022/06/23 04:03:30;;;;;;;14.93;7.53;;;;;;;15.27;90.82;101167.66;5052790;28;20059;-39
2022/06/23 04:05:55;;;;;;;13.98;7.68;;;;;;;15.34;89.53;101175.47;5052598;28;20057;-40
2022/06/23 04:08:27;;;;;;;15.90;8.27;;;;;;;15.37;89.34;101169.06;5053053;28;20036;-39
2022/06/23 04:10:54;;;;;;;16.88;8.23;;;;;;;15.40;89.67;101166.03;5052991;28;20032;-39
2022/06/23 04:13:33;;;;;;;14.35;7.72;;;;;;;15.57;89.05;101167.91;5054066;28;20025;-39
2022/06/23 04:16:08;;;;;;;14.85;7.63;;;;;;;15.61;87.77;101163.06;5056310;28;20024;-39
2022/06/23 04:18:39;;;;;;;15.60;7.95;;;;;;;15.71;87.58;101166.06;5056556;28;20455;-39
2022/06/23 04:21:10;;;;;;;14.35;7.50;;;;;;;15.61;88.32;101155.25;5055017;28;20029;-39
2022/06/23 04:23:42;;;;;;;15.32;8.00;;;;;;;15.64;88.29;101151.44;5056269;28;20047;-40
2022/06/23 04:26:13;;;;;;;16.85;7.80;;;;;;;15.69;88.00;101151.63;5056136;28;20048;-40
2022/06/23 04:28:47;;;;;;;15.75;6.95;;;;;;;15.71;87.98;101149.63;5056697;28;20406;-49
2022/06/23 04:31:23;;;;;;;13.77;7.25;;;;;;;15.69;87.20;101151.63;5056121;28;20467;-40
2022/06/23 04:33:49;;;;;;;13.80;7.40;;;;;;;15.83;86.50;101154.94;5056796;28;20033;-45
2022/06/23 04:36:20;;;;;;;13.38;7.65;;;;;;;15.89;86.56;101141.06;5055896;28;20029;-39
2022/06/23 04:39:07;;;;;;;19.40;7.25;;;;;;;15.88;86.29;101142.06;5056140;28;20387;-39
2022/06/23 04:41:46;;;;;;;12.93;7.20;;;;;;;15.71;86.68;101147.81;5055925;28;20029;-46
2022/06/23 04:44:17;;;;;;;14.30;7.00;;;;;;;16.01;86.92;101149.78;5056371;28;20025;-45
2022/06/23 04:46:59;;;;;;;12.32;7.38;;;;;;;16.12;85.45;101153.50;5055642;28;20025;-42
2022/06/23 04:49:37;;;;;;;11.68;7.10;;;;;;;16.05;85.17;101150.16;5055992;28;20493;-40
2022/06/23 04:52:05;;;;;;;12.95;7.32;;;;;;;15.93;85.72;101137.00;5055661;28;20029;-40
2022/06/23 04:54:49;;;;;;;16.98;7.32;;;;;;;15.89;86.52;101136.66;5055955;28;20348;-39
2022/06/23 04:57:21;;;;;;;12.00;7.13;;;;;;;16.03;85.61;101142.56;5055842;28;20116;-39
2022/06/23 04:59:56;;;;;;;11.73;7.13;;;;;;;16.19;85.45;101138.59;5055743;28;20025;-39
2022/06/23 05:02:32;;;;;;;16.17;7.40;;;;;;;16.23;84.07;101132.72;5055637;28;20033;-39
2022/06/23 05:05:09;;;;;;;17.48;7.88;;;;;;;16.17;84.60;101133.59;5037828;28;20052;-40
2022/06/23 05:08:07;;;;;;;13.85;7.32;;;;;;;16.43;84.31;101132.53;5055429;28;20032;-39
2022/06/23 05:10:36;;;;;;;14.55;7.00;;;;;;;16.43;83.48;101135.16;5055862;28;20059;-39
2022/06/23 05:13:06;;;;;;;14.95;7.15;;;;;;;16.97;82.09;101143.16;5055597;28;20032;-39
2022/06/23 05:15:57;;;;;;;16.75;6.63;;;;;;;19.09;73.41;101140.66;5054324;28;20424;-39
2022/06/23 05:18:30;;;;;;;13.35;6.78;;;;;;;18.15;74.40;101135.59;5055446;28;20104;-40
2022/06/23 05:21:04;;;;;;;11.13;6.32;;;;;;;17.20;79.40;101149.50;5055124;28;20039;-40
2022/06/23 05:23:42;;;;;;;20.92;7.03;;;;;;;17.10;78.86;101152.66;5055677;28;20067;-40
2022/06/23 05:26:42;;;;;;;12.60;7.10;;;;;;;17.00;79.26;101155.00;5055202;28;20071;-38
2022/06/23 05:29:34;;;;;;;14.63;6.80;;;;;;;18.47;74.68;101141.25;5055355;28;20041;-39
2022/06/23 05:32:13;;;;;;;14.02;6.65;;;;;;;22.40;60.19;101139.47;5054764;28;20379;-40
2022/06/23 05:34:50;;;;;;;11.90;5.68;;;;;;;25.53;50.04;101151.81;5054742;28;20360;-40
2022/06/23 05:37:43;;;;;;;12.30;5.70;;;;;;;27.50;43.46;101142.72;5054890;28;20138;-39
2022/06/23 05:40:34;;;;;;;11.57;5.60;;;;;;;28.48;41.02;101142.47;5055199;28;20032;-40
2022/06/23 05:43:01;;;;;;;11.50;5.32;;;;;;;28.47;40.71;101140.13;5052278;28;20025;-39
2022/06/23 05:45:42;;;;;;;11.48;4.93;;;;;;;28.76;40.65;101148.50;5052933;28;20017;-39
2022/06/23 05:48:14;;;;;;;9.82;5.05;;;;;;;28.67;40.26;101149.53;5053606;28;20116;-40
2022/06/23 05:50:49;;;;;;;9.70;5.30;;;;;;;29.39;38.41;101130.81;5054922;28;20024;-40
2022/06/23 05:53:20;;;;;;;10.98;5.00;;;;;;;29.33;38.80;101121.38;5037095;28;20052;-40
2022/06/23 05:55:53;;;;;;;12.73;5.17;;;;;;;30.11;37.51;101134.22;5053181;28;20031;-40
2022/06/23 05:58:44;;;;;;;14.13;5.03;;;;;;;29.63;37.77;101138.44;5053104;28;20025;-41
2022/06/23 06:01:25;;;;;;;10.40;5.28;;;;;;;29.41;36.99;101130.50;5054519;28;20055;-40
2022/06/23 06:04:00;;;;;;;11.33;5.20;;;;;;;28.11;39.70;101135.53;5054806;28;20364;-40
2022/06/23 06:06:26;;;;;;;13.07;4.93;;;;;;;28.71;38.76;101137.19;5053742;28;20444;-40
2022/06/23 06:11:47;;;;;;;10.35;5.50;;;;;;;28.43;39.49;101141.81;5054138;28;20047;-40
2022/06/23 06:14:14;;;;;;;10.70;5.18;;;;;;;28.34;39.31;101129.19;5054016;28;20028;-40
2022/06/23 06:16:40;;;;;;;7.97;5.13;;;;;;;29.05;38.38;101126.06;5053955;28;20028;-40
2022/06/23 06:19:06;;;;;;;11.90;5.50;;;;;;;29.00;38.22;101115.50;5054167;28;20032;-41
2022/06/23 06:21:32;;;;;;;10.30;5.13;;;;;;;30.96;34.99;101123.97;5054182;28;20027;-41
2022/06/23 06:24:03;;;;;;;10.65;5.25;;;;;;;30.14;35.77;101128.28;5053890;28;20056;-40
2022/06/23 06:26:32;;;;;;;10.13;5.00;;;;;;;28.62;39.46;101129.16;5053863;28;20537;-40
2022/06/23 06:29:20;;;;;;;9.93;5.63;;;;;;;28.58;38.77;101138.81;5052485;28;20027;-40
2022/06/23 06:31:55;;;;;;;13.07;5.10;;;;;;;29.05;38.05;101138.56;5053722;28;20021;-40
2022/06/23 06:34:33;;;;;;;8.57;5.13;;;;;;;28.06;40.11;101139.06;5054396;28;20032;-41
2022/06/23 06:36:58;;;;;;;9.55;5.50;;;;;;;25.57;45.56;101138.81;5053706;28;20083;-40
2022/06/23 06:39:46;;;;;;;9.02;5.22;;;;;;;24.73;48.47;101128.28;5053801;28;20071;-41
2022/06/23 06:42:17;;;;;;;17.67;6.40;;;;;;;24.44;49.96;101113.13;5054028;28;20485;-40
2022/06/23 06:44:46;;;;;;;13.00;5.97;;;;;;;24.61;49.43;101120.69;5053820;28;20387;-40
2022/06/23 06:47:34;;;;;;;14.75;5.78;;;;;;;23.35;51.90;101134.69;5053337;28;20029;-40
2022/06/23 06:50:05;;;;;;;13.10;6.25;;;;;;;23.53;51.90;101125.44;5053151;28;20036;-41
2022/06/23 06:52:31;;;;;;;11.47;6.10;;;;;;;23.30;53.54;101134.69;5053674;28;20106;-40
2022/06/23 06:55:13;;;;;;;15.48;6.13;;;;;;;23.83;52.87;101132.56;5053826;28;20034;-38
2022/06/23 06:58:03;;;;;;;9.90;5.78;;;;;;;24.05;51.68;101131.44;5053378;28;20029;-40
2022/06/23 07:00:41;;;;;;;11.32;5.68;;;;;;;24.88;51.29;101124.75;5053461;28;20021;-40
2022/06/23 07:03:08;;;;;;;12.38;6.00;;;;;;;24.15;50.57;101126.16;5053235;28;20512;-39
2022/06/23 07:05:53;;;;;;;17.50;5.45;;;;;;;24.05;51.08;101127.00;5052946;28;20037;-40
2022/06/23 07:08:28;;;;;;;12.65;5.32;;;;;;;24.04;50.61;101125.38;5053242;28;20041;-40
2022/06/23 07:11:01;;;;;;;11.13;5.00;;;;;;;24.85;50.08;101120.03;5053747;28;20395;-40
2022/06/23 07:14:00;;;;;;;13.43;5.60;;;;;;;25.08;49.50;101129.13;5053283;28;20367;-40
2022/06/23 07:16:25;;;;;;;13.25;5.45;;;;;;;24.90;48.55;101125.28;5052335;28;20491;-40
2022/06/23 07:19:05;;;;;;;14.43;5.97;;;;;;;25.02;49.48;101119.66;5052723;28;20033;-39
2022/06/23 07:21:39;;;;;;;12.55;5.68;;;;;;;25.01;49.04;101121.50;5052478;28;20268;-41
2022/06/23 07:24:41;;;;;;;11.43;5.45;;;;;;;24.58;50.05;101121.25;5052685;28;20471;-39
2022/06/23 07:27:19;;;;;;;10.73;5.03;;;;;;;25.59;48.33;101124.22;5046049;28;20049;-41
2022/06/23 07:29:52;;;;;;;10.38;5.18;;;;;;;25.35;47.17;101113.63;5051569;28;20025;-40
2022/06/23 07:32:36;;;;;;;9.07;4.28;;;;;;;26.16;46.77;101105.91;5053047;28;20032;-39
2022/06/23 07:35:11;;;;;;;12.07;5.07;;;;;;;26.45;45.78;101100.50;5052924;28;20029;-39
2022/06/23 07:37:50;;;;;;;8.52;5.22;;;;;;;25.40;46.71;101112.75;5053230;28;20029;-40
2022/06/23 07:40:19;;;;;;;11.55;5.43;;;;;;;25.12;47.98;101107.16;5053257;28;20375;-40
2022/06/23 07:43:10;;;;;;;17.88;5.43;;;;;;;25.08;48.49;101103.47;5052781;28;20476;-40
2022/06/23 07:45:48;;;;;;;9.75;4.93;;;;;;;26.03;46.92;101101.31;5052709;28;20029;-42
2022/06/23 07:48:14;;;;;;;13.65;5.18;;;;;;;26.48;46.06;101097.28;5054494;28;20565;-40
2022/06/23 07:50:39;;;;;;;13.07;5.35;;;;;;;26.57;45.10;101099.34;5057394;28;20029;-41
2022/06/23 07:53:09;;;;;;;17.25;5.30;;;;;;;26.29;45.47;101102.56;5056585;28;20063;-40
2022/06/23 07:55:41;;;;;;;9.77;5.22;;;;;;;26.44;45.76;101093.66;5056711;28;20070;-40
2022/06/23 07:58:07;;;;;;;10.93;5.53;;;;;;;26.45;44.96;101095.22;5056642;28;20017;-40
2022/06/23 08:00:38;;;;;;;16.30;5.47;;;;;;;26.06;45.23;101101.53;5056495;28;20029;-41
2022/06/23 08:03:11;;;;;;;8.50;5.30;;;;;;;26.06;45.27;101108.69;5055238;28;20028;-40
2022/06/23 08:05:51;;;;;;;9.85;5.10;;;;;;;26.63;45.16;101092.88;5056586;28;20069;-41
2022/06/23 08:08:21;;;;;;;8.98;5.10;;;;;;;26.61;44.41;101097.66;5056397;28;20116;-41
2022/06/23 08:12:52;;;;;;;8.85;4.60;;;;;;;26.72;43.99;101094.59;5056454;28;20025;-40
2022/06/23 08:13:35;;;;;;;8.50;3.97;;;;;;;27.03;44.58;101090.69;5056228;28;20025;-41
2022/06/23 08:18:53;;;;;;;14.35;4.60;;;;;;;27.26;42.86;101100.41;5056393;28;20102;-41
2022/06/23 08:21:29;;;;;;;10.90;4.72;;;;;;;26.33;44.94;101092.22;5056132;28;20021;-40
2022/06/23 08:23:54;;;;;;;12.68;4.28;;;;;;;27.78;42.86;101094.97;5038659;28;20478;-40
2022/06/23 08:26:22;;;;;;;7.53;4.50;;;;;;;26.38;44.65;101089.47;5056341;28;20067;-41
2022/06/23 08:28:51;;;;;;;13.15;4.95;;;;;;;27.38;42.26;101090.09;5055959;28;20687;-39
2022/06/23 08:31:17;;;;;;;9.93;4.65;;;;;;;27.31;43.55;101081.75;5056033;28;20467;-41
2022/06/23 08:33:43;;;;;;;8.40;4.22;;;;;;;28.01;41.25;101080.72;5056071;28;20025;-40
2022/06/23 08:36:17;;;;;;;12.23;4.45;;;;;;;27.74;42.30;101092.13;5055955;28;20436;-41
2022/06/23 08:38:55;;;;;;;9.27;4.38;;;;;;;28.23;40.87;101090.63;5055775;28;20048;-41
2022/06/23 08:41:43;;;;;;;8.02;4.35;;;;;;;27.69;42.00;101092.22;5056223;28;20075;-41
2022/06/23 08:44:12;;;;;;;12.00;4.28;;;;;;;28.19;41.85;101089.66;5055952;28;20055;-40
2022/06/23 08:46:39;;;;;;;10.10;4.70;;;;;;;27.68;41.78;101096.75;5055872;28;20487;-41
2022/06/23 08:49:14;;;;;;;10.63;4.63;;;;;;;27.81;41.90;101089.09;5055419;28;20025;-41
2022/06/23 08:51:51;;;;;;;10.05;4.50;;;;;;;28.30;41.74;101092.88;5055385;28;20112;-40
2022/06/23 08:54:35;;;;;;;14.73;4.70;;;;;;;27.84;41.59;101077.88;5055484;28;20432;-41
2022/06/23 08:57:16;;;;;;;12.40;4.38;;;;;;;29.03;40.44;101075.03;5055421;28;20048;-40
2022/06/23 08:59:48;;;;;;;11.15;4.75;;;;;;;29.15;39.66;101077.94;5055302;28;20517;-41
2022/06/23 09:02:37;;;;;;;9.75;4.65;;;;;;;28.90;39.51;101073.22;5055579;28;20031;-40
2022/06/23 09:05:07;;;;;;;11.90;3.35;;;;;;;29.58;40.56;101074.69;5055410;28;20487;-40
2022/06/23 09:07:42;;;;;;;10.90;4.40;;;;;;;29.10;39.23;101071.94;5055454;28;20021;-41
2022/06/23 09:10:39;;;;;;;15.05;5.00;;;;;;;28.83;39.53;101067.50;5055236;28;20056;-41
2022/06/23 09:13:10;;;;;;;14.60;4.55;;;;;;;29.05;39.56;101072.06;5055445;28;20048;-41
2022/06/23 09:16:12;;;;;;;11.70;4.80;;;;;;;28.53;40.54;101069.81;5055407;28;20464;-41
2022/06/23 09:18:59;;;;;;;9.45;3.92;;;;;;;29.06;40.45;101068.31;5055195;28;20036;-40
2022/06/23 09:21:47;;;;;;;7.70;3.83;;;;;;;30.24;39.16;101060.59;5055312;28;20052;-41
2022/06/23 09:24:53;;;;;;;8.60;4.25;;;;;;;30.08;38.18;101055.69;5054946;28;20025;-41
2022/06/23 09:27:47;;;;;;;8.73;3.88;;;;;;;29.86;38.88;101053.91;5035979;28;20140;-40
2022/06/23 09:30:25;;;;;;;11.02;3.55;;;;;;;29.91;38.81;101051.13;5054941;28;20017;-41
2022/06/23 09:32:57;;;;;;;10.93;4.25;;;;;;;29.98;38.81;101053.34;5054863;28;20083;-40
2022/06/23 09:35:34;;;;;;;19.42;4.65;;;;;;;29.83;39.05;101051.88;5054801;28;20021;-41
2022/06/23 09:38:15;;;;;;;11.95;3.63;;;;;;;30.35;38.06;101043.19;5053609;28;20119;-39
2022/06/23 09:41:06;;;;;;;14.73;4.00;;;;;;;29.99;38.67;101051.47;5053305;28;20480;-41
2022/06/23 09:43:40;;;;;;;11.77;3.70;;;;;;;29.83;38.78;101053.75;5053402;28;20107;-41
2022/06/23 09:46:33;;;;;;;11.00;4.20;;;;;;;30.42;37.85;101040.06;5054572;28;20036;-41
2022/06/23 09:49:22;;;;;;;;;;;;;;;29.92;38.76;101054.56;5055144;28;20428;-41
2022/06/23 09:52:03;;;;;;;9.73;4.20;;;;;;;29.01;40.96;101054.03;5054939;28;20317;-40
2022/06/23 09:54:56;;;;;;;15.27;4.47;;;;;;;30.61;38.06;101053.06;5054388;28;20124;-41
2022/06/23 09:57:34;;;;;;;10.90;3.90;;;;;;;31.61;37.04;101046.50;5054437;28;20028;-41
2022/06/23 10:00:32;;;;;;;18.10;3.45;;;;;;;31.29;37.21;101032.66;5054019;28;20051;-40
2022/06/23 10:03:05;;;;;;;8.50;4.43;;;;;;;30.70;37.82;101035.97;5054056;28;20028;-41
2022/06/23 10:05:47;;;;;;;9.95;4.25;;;;;;;31.43;36.88;101041.25;5053658;28;20445;-43
2022/06/23 10:08:24;;;;;;;9.50;3.97;;;;;;;30.26;39.32;101034.41;5053692;28;20052;-40
2022/06/23 10:11:18;;;;;;;11.75;4.30;;;;;;;30.35;38.86;101028.00;5053309;28;20025;-40
2022/06/23 10:14:13;;;;;;;11.82;4.53;;;;;;;29.90;39.65;101033.59;5052610;28;20413;-39
2022/06/23 10:16:55;;;;;;;11.40;4.03;;;;;;;30.58;38.76;101023.28;5034121;28;20037;-39
2022/06/23 10:19:38;;;;;;;;;;;;;;;30.48;38.75;101026.25;5054166;28;20102;-39
2022/06/23 10:22:31;;;;;;;11.45;4.07;;;;;;;31.50;37.65;101029.28;5053667;28;19915;-40
2022/06/23 10:25:15;;;;;;;13.77;4.20;;;;;;;31.46;37.33;101021.91;5054251;28;20029;-40
2022/06/23 10:28:08;;;;;;;15.48;4.43;;;;;;;30.58;38.62;101022.47;5053918;28;20029;-39
2022/06/23 10:30:47;;;;;;;18.50;4.43;;;;;;;30.15;39.62;101004.59;5053707;28;20036;-40
2022/06/23 10:33:42;;;;;;;13.93;3.85;;;;;;;31.77;37.07;101009.34;5054231;28;20056;-39
2022/06/23 10:36:27;;;;;;;14.45;4.38;;;;;;;31.29;38.09;101016.63;5053539;28;20059;-41
2022/06/23 10:39:10;;;;;;;9.63;3.83;;;;;;;31.28;37.90;101003.63;5053391;28;20025;-40
2022/06/23 10:41:44;;;;;;;9.90;3.92;;;;;;;31.74;37.15;101013.44;5053940;28;20043;-39
2022/06/23 10:44:36;;;;;;;13.25;3.42;;;;;;;30.82;39.20;100994.53;5053708;28;20105;-41
2022/06/23 10:47:02;;;;;;;;;;;;;;;30.87;39.45;100994.34;5053967;28;20021;-39
2022/06/23 10:50:05;;;;;;;11.37;3.50;;;;;;;31.28;38.52;101001.72;5053300;28;20382;-45
2022/06/23 10:52:48;;;;;;;12.90;3.78;;;;;;;31.68;37.58;100996.03;5014568;28;20797;-41
2022/06/23 10:55:42;;;;;;;11.63;3.83;;;;;;;31.60;38.06;100991.53;5052445;28;20047;-41
2022/06/23 10:58:40;;;;;;;17.30;3.20;;;;;;;31.06;38.08;100983.31;5038769;28;20037;-40
2022/06/23 11:01:12;;;;;;;12.50;3.35;;;;;;;31.12;38.20;100984.69;5053227;28;20025;-42
2022/06/23 11:03:49;;;;;;;9.50;3.13;;;;;;;30.47;38.82;100981.22;5053939;28;20478;-40
2022/06/23 11:06:26;;;;;;;11.23;3.00;;;;;;;30.99;38.81;100983.81;5052999;28;20053;-40
2022/06/23 11:09:27;;;;;;;9.00;3.13;;;;;;;30.99;37.81;100975.81;5053039;28;20471;-41
2022/06/23 11:12:06;;;;;;;11.00;3.17;;;;;;;31.44;37.62;100972.59;5053322;28;20053;-39
2022/06/23 11:15:00;;;;;;;9.25;3.08;;;;;;;30.79;38.57;100964.72;5053143;28;20033;-41
2022/06/23 11:17:45;;;;;;;8.95;3.20;;;;;;;30.93;37.89;100983.19;5053638;28;20058;-40
2022/06/23 11:20:32;;;;;;;13.77;3.30;;;;;;;30.72;37.61;100980.38;5053204;28;20032;-40
2022/06/23 11:23:15;;;;;;;13.85;3.58;;;;;;;31.33;36.62;100976.72;5055962;28;20033;-42
2022/06/23 11:26:00;;;;;;;11.95;3.20;;;;;;;31.78;35.77;100966.25;5057703;28;20368;-41
2022/06/23 11:28:29;;;;;;;10.88;3.30;;;;;;;31.36;37.14;100960.09;5056002;28;20025;-40
2022/06/23 11:30:54;;;;;;;13.52;3.20;;;;;;;31.19;36.45;100959.06;5055918;28;20040;-41
2022/06/23 11:33:29;;;;;;;11.88;3.08;;;;;;;31.45;36.39;100966.19;5057883;28;20411;-40
2022/06/23 11:36:32;;;;;;;15.77;3.28;;;;;;;31.62;36.26;100968.75;5057599;28;20094;-40
2022/06/23 11:39:15;;;;;;;13.30;3.65;;;;;;;31.77;35.67;100962.03;5055677;28;20040;-40
2022/06/23 11:42:08;;;;;;;11.95;3.90;;;;;;;31.38;36.96;100953.31;5057289;28;20028;-41
2022/06/23 11:45:08;;;;;;;13.20;3.30;;;;;;;32.20;35.86;100966.25;5057291;28;20474;-41
2022/06/23 11:48:03;;;;;;;11.43;4.10;;;;;;;31.10;37.17;100955.63;5057178;28;20075;-40
2022/06/23 11:50:38;;;;;;;10.55;3.20;;;;;;;31.70;36.31;100954.50;5057149;28;20028;-40
2022/06/23 11:53:15;;;;;;;10.80;3.58;;;;;;;31.57;36.98;100957.47;5056853;28;20017;-39
2022/06/23 11:55:58;;;;;;;8.52;3.78;;;;;;;32.16;36.19;100959.22;5055362;28;20036;-40
2022/06/23 11:58:29;;;;;;;12.63;3.78;;;;;;;32.10;36.48;100951.41;5056993;28;20025;-41
2022/06/23 12:01:11;;;;;;;11.00;3.80;;;;;;;31.62;37.07;100952.72;5056604;28;20029;-41
2022/06/23 12:04:06;;;;;;;14.82;3.83;;;;;;;32.75;36.09;100949.03;5056468;28;20037;-41
2022/06/23 12:07:09;;;;;;;16.67;4.50;;;;;;;32.19;36.93;100947.88;5045394;28;20053;-41
2022/06/23 12:10:09;;;;;;;13.43;4.13;;;;;;;31.66;37.53;100948.28;5056502;28;20356;-40
2022/06/23 12:12:35;;;;;;;13.93;4.30;;;;;;;30.06;39.69;100950.53;5056443;28;20024;-41
2022/06/23 12:15:07;;;;;;;14.48;4.15;;;;;;;30.62;39.40;100951.41;5055027;28;20400;-40
2022/06/23 12:17:39;;;;;;;11.73;4.60;;;;;;;30.99;38.43;100949.91;5056042;28;20036;-43
2022/06/23 12:20:33;;;;;;;11.85;4.30;;;;;;;31.48;37.56;100949.50;5056387;28;20047;-40
2022/06/23 12:23:14;;;;;;;17.23;4.57;;;;;;;30.65;39.29;100937.44;5056332;28;20055;-40